sensor_id;sensor_type;location;lat;lon;timestamp;temperature;humidity
61351;DHT22;47119;49.130;9.218;2023-03-03T00:01:21;8.93;59.24
61351;DHT22;47119;49.130;9.218;2023-03-03T00:03:49;8.89;59.45
61351;DHT22;47119;49.130;9.218;2023-03-03T00:06:17;8.89;59.40
61351;DHT22;47119;49.130;9.218;2023-03-03T00:08:44;8.89;59.36
61351;DHT22;47119;49.130;9.218;2023-03-03T00:11:13;8.87;59.31
61351;DHT22;47119;49.130;9.218;2023-03-03T00:13:45;8.87;59.26
61351;DHT22;47119;49.130;9.218;2023-03-03T00:16:23;8.79;59.42
61351;DHT22;47119;49.130;9.218;2023-03-03T00:18:52;8.77;59.65
61351;DHT22;47119;49.130;9.218;2023-03-03T00:21:25;8.78;59.43
61351;DHT22;47119;49.130;9.218;2023-03-03T00:24:19;8.78;59.50
61351;DHT22;47119;49.130;9.218;2023-03-03T00:26:49;8.72;59.37
61351;DHT22;47119;49.130;9.218;2023-03-03T00:29:32;8.64;59.58
61351;DHT22;47119;49.130;9.218;2023-03-03T00:32:19;8.61;59.54
61351;DHT22;47119;49.130;9.218;2023-03-03T00:34:48;8.63;59.44
61351;DHT22;47119;49.130;9.218;2023-03-03T00:37:30;8.54;59.39
61351;DHT22;47119;49.130;9.218;2023-03-03T00:40:12;8.53;59.72
61351;DHT22;47119;49.130;9.218;2023-03-03T00:42:48;8.51;59.94
61351;DHT22;47119;49.130;9.218;2023-03-03T00:45:24;8.51;59.90
61351;DHT22;47119;49.130;9.218;2023-03-03T00:48:14;8.53;59.69
61351;DHT22;47119;49.130;9.218;2023-03-03T00:50:47;8.47;59.70
61351;DHT22;47119;49.130;9.218;2023-03-03T00:53:16;8.46;59.75
61351;DHT22;47119;49.130;9.218;2023-03-03T00:55:46;8.46;59.70
61351;DHT22;47119;49.130;9.218;2023-03-03T00:58:15;8.51;59.32
61351;DHT22;47119;49.130;9.218;2023-03-03T01:00:45;8.47;59.47
61351;DHT22;47119;49.130;9.218;2023-03-03T01:03:20;8.48;59.47
61351;DHT22;47119;49.130;9.218;2023-03-03T01:05:52;8.48;59.27
61351;DHT22;47119;49.130;9.218;2023-03-03T01:08:23;8.37;59.61
61351;DHT22;47119;49.130;9.218;2023-03-03T01:10:52;8.40;59.45
61351;DHT22;47119;49.130;9.218;2023-03-03T01:13:26;8.32;59.59
61351;DHT22;47119;49.130;9.218;2023-03-03T01:15:58;8.32;59.91
61351;DHT22;47119;49.130;9.218;2023-03-03T01:18:28;8.29;59.81
61351;DHT22;47119;49.130;9.218;2023-03-03T01:20:58;8.23;59.85
61351;DHT22;47119;49.130;9.218;2023-03-03T01:23:26;8.33;59.41
61351;DHT22;47119;49.130;9.218;2023-03-03T01:25:54;8.30;59.48
61351;DHT22;47119;49.130;9.218;2023-03-03T01:28:21;8.36;59.29
61351;DHT22;47119;49.130;9.218;2023-03-03T01:30:50;8.37;58.93
61351;DHT22;47119;49.130;9.218;2023-03-03T01:33:18;8.27;59.12
61351;DHT22;47119;49.130;9.218;2023-03-03T01:35:48;8.16;59.39
61351;DHT22;47119;49.130;9.218;2023-03-03T01:38:17;8.13;59.46
61351;DHT22;47119;49.130;9.218;2023-03-03T01:40:51;8.10;59.24
61351;DHT22;47119;49.130;9.218;2023-03-03T13:36:40;9.73;53.45
61351;DHT22;47119;49.130;9.218;2023-03-03T13:39:19;9.74;53.62
61351;DHT22;47119;49.130;9.218;2023-03-03T13:41:54;9.73;53.63
61351;DHT22;47119;49.130;9.218;2023-03-03T13:44:33;9.73;53.62
61351;DHT22;47119;49.130;9.218;2023-03-03T13:47:14;9.77;53.76
61351;DHT22;47119;49.130;9.218;2023-03-03T13:49:58;9.76;53.64
61351;DHT22;47119;49.130;9.218;2023-03-03T13:52:40;9.70;53.30
61351;DHT22;47119;49.130;9.218;2023-03-03T13:55:21;9.71;53.51
61351;DHT22;47119;49.130;9.218;2023-03-03T13:57:59;9.76;53.30
61351;DHT22;47119;49.130;9.218;2023-03-03T14:00:49;9.80;53.70
61351;DHT22;47119;49.130;9.218;2023-03-03T14:03:44;9.81;53.94
61351;DHT22;47119;49.130;9.218;2023-03-03T14:06:28;9.80;53.62
61351;DHT22;47119;49.130;9.218;2023-03-03T14:09:11;9.81;53.49
61351;DHT22;47119;49.130;9.218;2023-03-03T14:11:51;9.80;53.33
61351;DHT22;47119;49.130;9.218;2023-03-03T14:14:44;9.85;53.79
61351;DHT22;47119;49.130;9.218;2023-03-03T14:17:28;9.88;53.63
61351;DHT22;47119;49.130;9.218;2023-03-03T14:20:17;9.85;53.44
61351;DHT22;47119;49.130;9.218;2023-03-03T14:22:53;9.88;53.42
61351;DHT22;47119;49.130;9.218;2023-03-03T14:25:49;9.85;53.88
61351;DHT22;47119;49.130;9.218;2023-03-03T14:28:25;9.88;53.63
61351;DHT22;47119;49.130;9.218;2023-03-03T14:30:55;9.91;53.78
61351;DHT22;47119;49.130;9.218;2023-03-03T14:33:27;9.93;53.74
61351;DHT22;47119;49.130;9.218;2023-03-03T14:36:11;9.93;54.03
61351;DHT22;47119;49.130;9.218;2023-03-03T14:38:46;9.95;53.97
61351;DHT22;47119;49.130;9.218;2023-03-03T14:41:36;9.93;53.90
61351;DHT22;47119;49.130;9.218;2023-03-03T14:44:26;9.94;54.09
61351;DHT22;47119;49.130;9.218;2023-03-03T14:47:15;9.95;54.04
61351;DHT22;47119;49.130;9.218;2023-03-03T14:49:52;9.97;54.21
61351;DHT22;47119;49.130;9.218;2023-03-03T14:52:23;9.97;54.19
61351;DHT22;47119;49.130;9.218;2023-03-03T14:54:53;9.98;54.21
61351;DHT22;47119;49.130;9.218;2023-03-03T14:57:40;10.04;54.74
61351;DHT22;47119;49.130;9.218;2023-03-03T15:00:28;10.02;54.51
61351;DHT22;47119;49.130;9.218;2023-03-03T15:03:20;10.02;54.51
61351;DHT22;47119;49.130;9.218;2023-03-03T15:05:52;10.02;54.81
61351;DHT22;47119;49.130;9.218;2023-03-03T15:08:29;10.04;54.60
61351;DHT22;47119;49.130;9.218;2023-03-03T15:11:13;10.07;54.64
61351;DHT22;47119;49.130;9.218;2023-03-03T15:13:50;10.05;54.82
61351;DHT22;47119;49.130;9.218;2023-03-03T15:16:19;10.07;54.73
61351;DHT22;47119;49.130;9.218;2023-03-03T15:19:23;10.05;54.83
61351;DHT22;47119;49.130;9.218;2023-03-03T15:22:03;10.05;54.56
61351;DHT22;47119;49.130;9.218;2023-03-03T15:24:44;10.04;54.67
61351;DHT22;47119;49.130;9.218;2023-03-03T15:27:27;10.07;54.68
61351;DHT22;47119;49.130;9.218;2023-03-03T15:30:10;10.08;54.66
61351;DHT22;47119;49.130;9.218;2023-03-03T15:32:48;10.07;54.75
61351;DHT22;47119;49.130;9.218;2023-03-03T15:35:28;10.07;54.70
61351;DHT22;47119;49.130;9.218;2023-03-03T15:38:09;10.08;54.60
61351;DHT22;47119;49.130;9.218;2023-03-03T15:40:52;10.04;54.89
61351;DHT22;47119;49.130;9.218;2023-03-03T15:43:31;10.05;54.62
61351;DHT22;47119;49.130;9.218;2023-03-03T15:46:14;10.04;54.42
61351;DHT22;47119;49.130;9.218;2023-03-03T15:48:59;10.01;54.51
61351;DHT22;47119;49.130;9.218;2023-03-03T15:51:58;10.02;54.30
61351;DHT22;47119;49.130;9.218;2023-03-03T15:55:03;10.04;54.63
61351;DHT22;47119;49.130;9.218;2023-03-03T15:57:57;10.05;54.68
61351;DHT22;47119;49.130;9.218;2023-03-03T16:03:38;10.08;54.14
61351;DHT22;47119;49.130;9.218;2023-03-03T16:06:15;10.01;54.23
61351;DHT22;47119;49.130;9.218;2023-03-03T16:09:05;10.05;54.29
61351;DHT22;47119;49.130;9.218;2023-03-03T16:11:47;10.08;54.42
61351;DHT22;47119;49.130;9.218;2023-03-03T16:25:30;9.91;55.34
61351;DHT22;47119;49.130;9.218;2023-03-03T16:28:12;9.83;55.34
